.
WxDataArchive / Data Records for 2014-11-19
2014-11-18 November 2014 2014-11-20

Data Records for Wednesday, 19 November 2014

Time	Temp	Chill	HIndex	Humid	Dewpt	 Wind 	HiWind	WindDir	Rain 	Barom
-----	----	-----	------	-----	-----	------	------	-------	-----	-----
00:00	16.2	16.2	16.2	60	4.8	0	2	248	0.00	30.211 
00:05	16.2	16.2	16.2	59	4.4	1	5	248	0.00	30.211 
00:10	16.2	16.2	16.2	59	4.4	0	2	248	0.00	30.211 
00:15	16.4	16.4	16.4	60	5.0	0	2	248	0.00	30.210 
00:20	16.4	16.4	16.4	60	5.0	1	3	248	0.00	30.210 
00:25	16.2	16.2	16.2	60	4.8	0	3	248	0.00	30.210 
00:30	16.2	16.2	16.2	61	5.1	0	1	248	0.00	30.201 
00:35	16.1	16.1	16.1	62	5.4	0	2	248	0.00	30.201 
00:40	16.1	16.1	16.1	62	5.4	0	2	248	0.00	30.201 
00:45	15.9	15.9	15.9	63	5.6	0	1	248	0.00	30.198 
00:50	15.9	15.9	15.9	64	5.9	0	3	248	0.00	30.198 
00:55	15.9	15.9	15.9	64	5.9	0	2	248	0.00	30.198 
01:00	15.7	15.7	15.7	65	6.1	0	2	248	0.00	30.196 
01:05	15.6	15.6	15.6	65	6.0	0	1	248	0.00	30.196 
01:10	15.4	15.4	15.4	65	5.8	0	1	248	0.00	30.196 
01:15	15.4	15.4	15.4	66	6.1	0	2	248	0.00	30.195 
01:20	15.2	15.2	15.2	66	5.9	0	3	248	0.00	30.195 
01:25	15.2	15.2	15.2	66	5.9	0	2	248	0.00	30.195 
01:30	15.1	15.1	15.1	67	6.1	0	1	248	0.00	30.187 
01:35	15.1	15.1	15.1	67	6.1	0	1	248	0.00	30.187 
01:40	14.9	14.9	14.9	67	6.0	0	1	248	0.00	30.187 
01:45	14.9	14.9	14.9	67	6.0	0	1	248	0.00	30.184 
01:50	14.8	14.8	14.8	67	5.9	0	2	248	0.00	30.184 
01:55	14.8	14.8	14.8	68	6.2	0	2	248	0.00	30.184 
02:00	14.8	14.8	14.8	68	6.2	0	3	248	0.00	30.178 
02:05	14.8	14.8	14.8	68	6.2	0	2	248	0.00	30.178 
02:10	14.8	14.8	14.8	68	6.2	0	2	248	0.00	30.178 
02:15	14.9	14.9	14.9	69	6.6	0	0	---	0.00	30.175 
02:20	14.9	14.9	14.9	69	6.6	0	2	248	0.00	30.175 
02:25	15.1	15.1	15.1	70	7.1	0	2	248	0.00	30.175 
02:30	15.1	15.1	15.1	70	7.1	0	1	248	0.00	30.172 
02:35	15.2	15.2	15.2	71	7.5	0	2	248	0.00	30.172 
02:40	15.2	15.2	15.2	71	7.5	0	3	248	0.00	30.172 
02:45	15.2	15.2	15.2	71	7.5	0	2	315	0.00	30.169 
02:50	15.2	15.2	15.2	72	7.8	0	2	315	0.00	30.169 
02:55	15.2	15.2	15.2	73	8.1	0	1	315	0.00	30.169 
03:00	15.2	15.2	15.2	73	8.1	0	1	315	0.00	30.165 
03:05	15.4	15.4	15.4	73	8.3	0	2	315	0.00	30.165 
03:10	15.4	15.4	15.4	74	8.6	0	2	315	0.00	30.165 
03:15	15.4	15.4	15.4	74	8.6	0	2	315	0.00	30.162 
03:20	15.6	15.6	15.6	74	8.8	0	1	315	0.00	30.162 
03:25	15.6	15.6	15.6	75	9.1	0	2	315	0.00	30.162 
03:30	15.4	15.4	15.4	75	8.9	0	2	315	0.00	30.155 
03:35	15.2	15.2	15.2	75	8.7	0	2	315	0.00	30.155 
03:40	14.9	14.9	14.9	75	8.4	0	2	315	0.00	30.155 
03:45	14.8	14.8	14.8	76	8.6	0	2	338	0.00	30.150 
03:50	14.6	14.6	14.6	76	8.4	0	2	338	0.00	30.150 
03:55	14.4	14.4	14.4	77	8.5	0	1	338	0.00	30.150 
04:00	14.3	14.3	14.3	77	8.4	0	1	338	0.00	30.146 
04:05	14.1	14.1	14.1	77	8.2	0	1	338	0.00	30.146 
04:10	14.0	14.0	14.0	77	8.1	0	1	338	0.00	30.146 
04:15	14.0	14.0	14.0	77	8.1	0	2	338	0.00	30.136 
04:20	13.8	13.8	13.8	77	7.9	0	1	338	0.00	30.136 
04:25	13.8	13.8	13.8	77	7.9	0	0	---	0.00	30.136 
04:30	13.6	13.6	13.6	77	7.8	0	1	338	0.00	30.132 
04:35	13.6	13.6	13.6	77	7.8	0	3	45	0.00	30.132 
04:40	13.6	13.6	13.6	77	7.8	0	1	45	0.00	30.132 
04:45	13.6	13.6	13.6	76	7.5	0	1	45	0.00	30.120 
04:50	13.6	13.6	13.6	76	7.5	0	1	45	0.00	30.120 
04:55	13.5	13.5	13.5	76	7.4	0	2	45	0.00	30.120 
05:00	13.5	13.5	13.5	76	7.4	0	1	45	0.00	30.113 
05:05	13.5	13.5	13.5	76	7.4	0	2	68	0.00	30.113 
05:10	13.5	13.5	13.5	75	7.1	0	1	68	0.00	30.113 
05:15	13.6	13.6	13.6	75	7.2	0	3	68	0.00	30.096 
05:20	13.6	13.6	13.6	75	7.2	0	1	68	0.00	30.096 
05:25	13.6	13.6	13.6	75	7.2	0	2	68	0.00	30.096 
05:30	13.8	13.8	13.8	75	7.4	0	3	68	0.00	30.090 
05:35	14.0	14.0	14.0	75	7.6	0	3	112	0.00	30.090 
05:40	14.3	14.3	14.3	74	7.6	0	4	112	0.00	30.090 
05:45	14.4	14.4	14.4	74	7.7	0	3	112	0.00	30.079 
05:50	14.6	14.6	14.6	73	7.5	1	3	135	0.00	30.079 
05:55	14.8	14.8	14.8	73	7.7	1	5	112	0.00	30.079 
06:00	15.1	15.1	15.1	72	7.7	1	4	90	0.00	30.073 
06:05	15.2	15.2	15.2	71	7.5	0	3	112	0.00	30.073 
06:10	15.4	15.4	15.4	70	7.4	1	3	112	0.00	30.073 
06:15	15.6	15.6	15.6	69	7.3	1	4	90	0.00	30.062 
06:20	15.7	15.7	15.7	69	7.4	0	3	90	0.00	30.062 
06:25	15.9	15.9	15.9	69	7.6	0	2	90	0.00	30.062 
06:30	16.1	16.1	16.1	69	7.8	0	3	90	0.00	30.055 
06:35	16.1	16.1	16.1	69	7.8	0	3	90	0.00	30.055 
06:40	16.2	16.2	16.2	69	7.8	1	7	90	0.00	30.055 
06:45	16.4	16.4	16.4	68	7.7	1	3	112	0.00	30.041 
06:50	16.4	16.4	16.4	69	8.0	1	4	90	0.00	30.041 
06:55	16.5	16.5	16.5	69	8.1	1	5	112	0.00	30.041 
07:00	16.7	16.7	16.7	69	8.3	1	3	90	0.00	30.025 
07:05	16.7	16.7	16.7	69	8.3	1	4	90	0.00	30.025 
07:10	16.9	16.9	16.9	69	8.5	1	5	112	0.00	30.025 
07:15	16.9	16.9	16.9	69	8.5	1	6	112	0.00	30.013 
07:20	17.0	17.0	17.0	69	8.6	1	4	90	0.00	30.013 
07:25	17.0	17.0	17.0	69	8.6	1	2	112	0.00	30.013 
07:30	17.2	17.2	17.2	69	8.8	1	5	135	0.00	30.004 
07:35	17.3	17.3	17.3	69	8.9	0	5	90	0.00	30.004 
07:40	17.7	17.7	17.7	69	9.3	1	7	112	0.00	30.004 
07:45	17.8	17.8	17.8	69	9.4	1	3	112	0.00	29.999 
07:50	18.0	18.0	18.0	69	9.6	1	3	112	0.00	29.999 
07:55	18.3	18.3	18.3	69	9.9	1	9	112	0.00	29.999 
08:00	18.4	18.4	18.4	69	10.0	1	2	90	0.00	29.990 
08:05	18.8	18.8	18.8	69	10.3	1	7	112	0.00	29.990 
08:10	19.1	19.1	19.1	69	10.6	1	3	112	0.00	29.990 
08:15	19.2	19.2	19.2	70	11.0	1	4	112	0.00	29.979 
08:20	19.4	19.4	19.4	71	11.6	1	4	68	0.00	29.979 
08:25	19.7	19.7	19.7	72	12.2	1	4	112	0.00	29.979 
08:30	19.7	19.7	19.7	71	11.8	1	5	90	0.00	29.972 
08:35	19.9	19.9	19.9	71	12.0	1	3	90	0.00	29.972 
08:40	20.0	20.0	20.0	70	11.8	1	6	90	0.00	29.972 
08:45	20.2	20.2	20.2	71	12.3	1	4	90	0.00	29.963 
08:50	20.2	20.2	20.2	72	12.6	2	6	112	0.00	29.963 
08:55	20.3	20.3	20.3	73	13.1	1	4	68	0.00	29.963 
09:00	20.3	20.3	20.3	74	13.4	1	5	112	0.00	29.943 
09:05	20.3	20.3	20.3	76	14.0	1	6	90	0.00	29.943 
09:10	20.5	20.5	20.5	77	14.5	1	3	112	0.00	29.943 
09:15	20.5	20.5	20.5	77	14.5	1	4	22	0.00	29.942 
09:20	20.6	20.6	20.6	77	14.6	1	3	90	0.00	29.942 
09:25	20.8	20.8	20.8	76	14.5	1	5	90	0.00	29.942 
09:30	21.0	21.0	21.0	75	14.3	1	3	90	0.00	29.936 
09:35	21.1	21.1	21.1	74	14.1	1	6	90	0.00	29.936 
09:40	21.4	21.4	21.4	73	14.1	2	5	112	0.00	29.936 
09:45	21.8	21.8	21.8	73	14.5	1	5	112	0.00	29.922 
09:50	21.9	21.9	21.9	72	14.3	1	5	112	0.00	29.922 
09:55	22.2	22.2	22.2	72	14.6	1	4	90	0.00	29.922 
10:00	22.7	22.7	22.7	71	14.7	1	4	45	0.00	29.909 
10:05	23.0	23.0	23.0	70	14.7	2	10	90	0.00	29.909 
10:10	23.2	23.2	23.2	70	14.9	2	5	90	0.00	29.909 
10:15	23.5	23.5	23.5	71	15.5	1	7	68	0.00	29.902 
10:20	23.6	23.6	23.6	71	15.6	1	6	90	0.00	29.902 
10:25	23.8	23.8	23.8	70	15.5	1	5	270	0.00	29.902 
10:30	23.9	23.9	23.9	70	15.6	1	7	90	0.00	29.891 
10:35	23.9	23.9	23.9	70	15.6	2	10	45	0.00	29.891 
10:40	23.9	23.9	23.9	70	15.6	2	10	112	0.00	29.891 
10:45	23.9	23.9	23.9	72	16.2	1	6	90	0.00	29.884 
10:50	24.1	24.1	24.1	71	16.1	1	3	112	0.00	29.884 
10:55	24.5	24.5	24.5	71	16.5	1	3	315	0.00	29.884 
11:00	25.0	25.0	25.0	70	16.6	1	4	315	0.00	29.870 
11:05	25.3	25.3	25.3	70	16.9	1	5	90	0.00	29.870 
11:10	25.4	25.4	25.4	70	17.0	1	4	90	0.00	29.870 
11:15	25.7	25.7	25.7	69	17.0	1	4	270	0.00	29.857 
11:20	26.0	26.0	26.0	69	17.2	0	5	112	0.00	29.857 
11:25	26.4	26.4	26.4	68	17.3	1	4	248	0.00	29.857 
11:30	26.9	26.9	26.9	67	17.4	1	6	248	0.00	29.849 
11:35	27.3	27.3	27.3	67	17.8	1	3	270	0.00	29.849 
11:40	27.6	27.6	27.6	66	17.8	1	5	248	0.00	29.849 
11:45	27.9	27.9	27.9	65	17.7	1	5	248	0.00	29.837 
11:50	28.1	28.1	28.1	66	18.2	1	5	248	0.00	29.837 
11:55	28.2	28.2	28.2	66	18.3	1	4	248	0.00	29.837 
12:00	28.5	28.5	28.5	66	18.6	1	5	248	0.00	29.830 
12:05	28.7	28.7	28.7	67	19.2	1	5	248	0.00	29.830 
12:10	29.3	29.3	29.3	67	19.7	0	3	270	0.00	29.830 
12:15	29.7	29.7	29.7	66	19.8	2	7	248	0.00	29.818 
12:20	30.0	30.0	30.0	65	19.7	2	11	248	0.00	29.818 
12:25	30.1	30.1	30.1	65	19.8	3	9	248	0.00	29.818 
12:30	30.3	30.3	30.3	65	20.0	2	6	248	0.00	29.805 
12:35	30.4	30.4	30.4	65	20.1	3	9	248	0.00	29.805 
12:40	30.6	30.6	30.6	65	20.3	3	9	248	0.00	29.805 
12:45	30.6	30.6	30.6	65	20.3	2	6	248	0.00	29.801 
12:50	30.7	30.7	30.7	65	20.3	2	9	248	0.00	29.801 
12:55	30.9	30.9	30.9	65	20.5	2	6	248	0.00	29.801 
13:00	30.9	30.9	30.9	65	20.5	1	6	248	0.00	29.785 
13:05	31.0	31.0	31.0	66	21.0	1	5	248	0.00	29.785 
13:10	31.2	31.2	31.2	66	21.2	2	6	248	0.00	29.785 
13:15	31.2	31.2	31.2	66	21.2	1	4	248	0.00	29.775 
13:20	31.2	31.2	31.2	66	21.2	1	9	248	0.00	29.775 
13:25	31.2	31.2	31.2	66	21.2	3	8	248	0.00	29.775 
13:30	31.2	31.2	31.2	67	21.5	1	6	248	0.00	29.774 
13:35	31.3	31.3	31.3	68	22.0	1	5	248	0.00	29.774 
13:40	31.3	31.3	31.3	68	22.0	1	4	248	0.00	29.774 
13:45	31.5	31.5	31.5	68	22.2	1	5	270	0.00	29.773 
13:50	31.5	31.5	31.5	68	22.2	2	6	248	0.00	29.773 
13:55	31.6	31.6	31.6	69	22.6	1	4	248	0.00	29.773 
14:00	31.8	31.8	31.8	69	22.8	2	6	248	0.00	29.772 
14:05	31.9	31.9	31.9	69	22.9	1	5	248	0.00	29.772 
14:10	32.1	32.1	32.1	69	23.1	1	4	248	0.00	29.772 
14:15	32.4	32.4	32.4	69	23.4	1	4	248	0.00	29.772 
14:20	32.5	32.5	32.5	69	23.5	2	6	248	0.00	29.772 
14:25	32.8	32.8	32.8	69	23.8	2	5	248	0.00	29.772 
14:30	33.1	33.1	33.1	69	24.1	2	7	248	0.00	29.767 
14:35	33.2	33.2	33.2	68	23.8	1	4	248	0.00	29.767 
14:40	33.4	33.4	33.4	68	24.0	3	9	248	0.00	29.767 
14:45	33.5	33.5	33.5	68	24.1	2	7	248	0.00	29.760 
14:50	33.5	33.5	33.5	68	24.1	3	13	248	0.00	29.760 
14:55	33.5	33.5	33.5	68	24.1	3	9	248	0.00	29.760 
15:00	33.7	33.7	33.7	68	24.3	2	7	248	0.00	29.770 
15:05	33.7	33.7	33.7	68	24.3	3	9	248	0.00	29.770 
15:10	33.7	33.7	33.7	68	24.3	2	7	248	0.00	29.770 
15:15	33.7	33.7	33.7	68	24.3	2	5	248	0.00	29.770 
15:20	33.7	33.7	33.7	68	24.3	3	9	248	0.00	29.770 
15:25	33.7	33.7	33.7	68	24.3	3	7	248	0.00	29.770 
15:30	33.7	33.7	33.7	68	24.3	3	9	248	0.00	29.772 
15:35	33.7	33.7	33.7	68	24.3	3	7	248	0.00	29.772 
15:40	33.7	33.7	33.7	68	24.3	2	6	248	0.00	29.772 
15:45	33.5	33.5	33.5	69	24.4	2	7	248	0.00	29.775 
15:50	33.5	33.5	33.5	69	24.4	2	9	248	0.00	29.775 
15:55	33.5	33.5	33.5	68	24.1	3	7	270	0.00	29.775 
16:00	33.5	33.5	33.5	68	24.1	3	6	248	0.00	29.785 
16:05	33.4	33.4	33.4	68	24.0	2	6	248	0.01	29.785 
16:10	33.2	29.5	33.2	65	22.7	4	9	270	0.00	29.785 
16:15	33.1	28.4	33.1	62	21.5	5	12	248	0.00	29.803 
16:20	32.8	28.0	32.8	62	21.2	5	12	270	0.00	29.803 
16:25	32.5	28.7	32.5	62	20.9	4	12	248	0.00	29.803 
16:30	32.4	28.5	32.4	62	20.9	4	11	270	0.00	29.814 
16:35	31.9	27.0	31.9	60	19.6	5	10	270	0.00	29.814 
16:40	31.6	27.6	31.6	60	19.3	4	7	270	0.00	29.814 
16:45	31.3	26.3	31.3	61	19.4	5	10	270	0.00	29.832 
16:50	31.0	26.9	31.0	61	19.1	4	12	248	0.00	29.832 
16:55	30.9	26.8	30.9	63	19.8	4	9	270	0.00	29.832 
17:00	30.6	26.5	30.6	64	19.9	4	7	270	0.00	29.840 
17:05	30.3	25.1	30.3	63	19.2	5	11	270	0.00	29.840 
17:10	30.1	24.8	30.1	63	19.0	5	9	270	0.00	29.840 
17:15	30.1	25.9	30.1	64	19.4	4	7	270	0.00	29.851 
17:20	30.1	30.1	30.1	64	19.4	3	10	248	0.00	29.851 
17:25	30.0	25.8	30.0	64	19.3	4	10	270	0.00	29.851 
17:30	30.0	30.0	30.0	65	19.7	3	9	248	0.00	29.858 
17:35	29.8	29.8	29.8	65	19.5	3	11	248	0.00	29.858 
17:40	29.7	25.4	29.7	64	19.0	4	10	270	0.00	29.858 
17:45	29.5	25.2	29.5	65	19.2	4	9	270	0.00	29.872 
17:50	29.3	25.0	29.3	65	19.0	4	10	270	0.00	29.872 
17:55	29.1	29.1	29.1	66	19.2	3	9	248	0.00	29.872 
18:00	29.0	29.0	29.0	65	18.7	3	9	270	0.00	29.883 
18:05	29.0	24.6	29.0	65	18.7	4	9	270	0.00	29.883 
18:10	28.8	24.4	28.8	66	18.9	4	9	270	0.00	29.883 
18:15	28.5	28.5	28.5	67	19.0	3	9	248	0.00	29.895 
18:20	28.4	28.4	28.4	67	18.9	3	6	270	0.00	29.895 
18:25	28.4	23.9	28.4	66	18.5	4	10	270	0.00	29.895 
18:30	28.2	23.7	28.2	66	18.3	4	7	270	0.00	29.902 
18:35	28.2	23.7	28.2	65	18.0	4	11	270	0.00	29.902 
18:40	28.1	23.6	28.1	65	17.9	4	7	270	0.00	29.902 
18:45	27.9	23.3	27.9	64	17.3	4	9	248	0.00	29.912 
18:50	27.8	23.2	27.8	62	16.5	4	10	248	0.00	29.912 
18:55	27.6	27.6	27.6	62	16.3	3	6	270	0.00	29.912 
19:00	27.6	23.0	27.6	62	16.3	4	10	248	0.00	29.917 
19:05	27.5	21.8	27.5	61	15.8	5	11	270	0.00	29.917 
19:10	27.5	27.5	27.5	62	16.2	3	9	270	0.00	29.917 
19:15	27.3	27.3	27.3	61	15.7	3	6	270	0.00	29.924 
19:20	27.3	27.3	27.3	61	15.7	3	6	270	0.00	29.924 
19:25	27.3	27.3	27.3	61	15.7	3	7	270	0.00	29.924 
19:30	27.3	27.3	27.3	61	15.7	3	6	270	0.00	29.931 
19:35	27.3	27.3	27.3	61	15.7	2	5	248	0.00	29.931 
19:40	27.3	27.3	27.3	61	15.7	2	6	248	0.00	29.931 
19:45	27.2	27.2	27.2	61	15.6	3	7	270	0.00	29.939 
19:50	27.0	27.0	27.0	62	15.7	3	8	270	0.00	29.939 
19:55	26.9	22.2	26.9	62	15.6	4	10	270	0.00	29.939 
20:00	26.6	26.6	26.6	63	15.7	3	7	270	0.00	29.947 
20:05	26.6	26.6	26.6	63	15.7	3	6	270	0.00	29.947 
20:10	26.4	26.4	26.4	63	15.5	3	6	292	0.00	29.947 
20:15	26.4	26.4	26.4	64	15.9	3	7	270	0.00	29.952 
20:20	26.3	26.3	26.3	64	15.8	2	7	248	0.00	29.952 
20:25	26.1	26.1	26.1	64	15.6	2	6	270	0.00	29.952 
20:30	26.1	26.1	26.1	64	15.6	3	7	248	0.00	29.956 
20:35	26.0	26.0	26.0	64	15.5	3	7	248	0.00	29.956 
20:40	25.8	25.8	25.8	65	15.7	3	7	270	0.00	29.956 
20:45	25.8	25.8	25.8	65	15.7	2	7	270	0.00	29.962 
20:50	25.8	25.8	25.8	65	15.7	2	4	270	0.00	29.962 
20:55	25.7	25.7	25.7	65	15.6	2	7	248	0.00	29.962 
21:00	25.7	25.7	25.7	65	15.6	3	6	270	0.00	29.961 
21:05	25.7	25.7	25.7	65	15.6	2	6	270	0.00	29.961 
21:10	25.7	25.7	25.7	66	15.9	3	6	248	0.00	29.961 
21:15	25.6	25.6	25.6	67	16.2	2	6	270	0.00	29.961 
21:20	25.6	25.6	25.6	67	16.2	3	6	270	0.00	29.961 
21:25	25.6	25.6	25.6	68	16.5	3	6	270	0.00	29.961 
21:30	25.4	20.5	25.4	69	16.7	4	10	270	0.00	29.966 
21:35	25.4	25.4	25.4	69	16.7	3	6	270	0.00	29.966 
21:40	25.3	25.3	25.3	68	16.2	3	7	248	0.00	29.966 
21:45	25.3	25.3	25.3	67	15.9	3	7	270	0.00	29.974 
21:50	25.3	25.3	25.3	68	16.2	2	5	248	0.00	29.974 
21:55	25.3	25.3	25.3	68	16.2	2	5	270	0.00	29.974 
22:00	25.3	25.3	25.3	69	16.6	2	4	248	0.00	29.977 
22:05	25.1	25.1	25.1	66	15.4	3	6	248	0.00	29.977 
22:10	25.0	25.0	25.0	65	14.9	2	7	248	0.00	29.977 
22:15	24.8	24.8	24.8	65	14.7	3	6	248	0.00	29.987 
22:20	24.7	24.7	24.7	65	14.6	2	6	248	0.00	29.987 
22:25	24.7	24.7	24.7	67	15.3	3	7	270	0.00	29.987 
22:30	24.2	24.2	24.2	69	15.5	3	6	270	0.00	29.992 
22:35	23.9	23.9	23.9	71	15.9	3	10	270	0.00	29.992 
22:40	23.6	23.6	23.6	71	15.6	2	4	248	0.00	29.992 
22:45	23.5	23.5	23.5	70	15.2	2	6	248	0.00	29.989 
22:50	23.5	23.5	23.5	69	14.9	3	7	248	0.00	29.989 
22:55	23.5	23.5	23.5	67	14.2	2	7	248	0.00	29.989 
23:00	23.5	23.5	23.5	65	13.5	2	7	270	0.00	29.993 
23:05	23.5	23.5	23.5	64	13.1	3	9	248	0.00	29.993 
23:10	23.5	18.3	23.5	62	12.4	4	9	248	0.00	29.993 
23:15	23.5	23.5	23.5	61	12.1	2	5	248	0.00	29.992 
23:20	23.5	23.5	23.5	61	12.1	2	6	248	0.00	29.992 
23:25	23.3	23.3	23.3	60	11.5	3	6	270	0.00	29.992 
23:30	23.5	23.5	23.5	60	11.7	3	9	248	0.00	29.992 
23:35	23.3	23.3	23.3	60	11.5	2	5	270	0.00	29.992 
23:40	23.3	23.3	23.3	60	11.5	3	6	270	0.00	29.992 
23:45	23.3	23.3	23.3	60	11.5	2	4	248	0.00	29.992 
23:50	23.3	23.3	23.3	60	11.5	1	5	248	0.00	29.992 
23:55	23.2	23.2	23.2	60	11.4	2	6	248	0.00	29.992 

CoCoRaHS
IN-AL-39
A2 Web Hosting
Creative Commons License
GoDaddy
search engine by freefind advanced

loaded 2018-11-15 17:49:10 • last modified 2010-11-18 10:43:29
Privacy PolicyDisclaimer
• wx.awcolley.com is powered by PmWiki v.2002016 •
• all content (unless otherwise noted) © 2018 A W Colley